createdAt,value
2022-10-10T00:01:24.331Z,2.92
2022-10-10T00:03:52.833Z,2.38
2022-10-10T00:06:22.132Z,3.03
2022-10-10T00:08:52.270Z,2.30
2022-10-10T00:11:23.819Z,2.00
2022-10-10T00:13:52.495Z,2.38
2022-10-10T00:16:20.988Z,2.72
2022-10-10T00:18:50.024Z,2.13
2022-10-10T00:21:18.277Z,2.00
2022-10-10T00:23:46.690Z,2.60
2022-10-10T00:26:19.237Z,2.17
2022-10-10T00:28:47.768Z,2.35
2022-10-10T00:31:15.992Z,2.38
2022-10-10T00:33:44.384Z,2.55
2022-10-10T00:36:12.860Z,2.45
2022-10-10T00:38:41.072Z,2.92
2022-10-10T00:41:10.383Z,2.60
2022-10-10T00:43:40.780Z,2.70
2022-10-10T00:46:09.695Z,2.75
2022-10-10T00:48:41.154Z,2.50
2022-10-10T00:51:11.801Z,2.67
2022-10-10T00:53:44.256Z,2.72
2022-10-10T00:56:15.487Z,2.55
2022-10-10T00:58:49.808Z,2.80
2022-10-10T01:01:18.278Z,2.40
2022-10-10T01:03:46.670Z,2.60
2022-10-10T01:06:15.234Z,2.58
2022-10-10T01:08:44.378Z,2.85
2022-10-10T01:11:30.549Z,2.30
2022-10-10T01:14:10.094Z,2.70
2022-10-10T01:16:51.640Z,2.40
2022-10-10T01:19:48.859Z,2.63
2022-10-10T01:22:28.010Z,2.80
2022-10-10T01:25:01.540Z,2.95
2022-10-10T01:27:36.175Z,2.78
2022-10-10T01:30:09.258Z,2.30
2022-10-10T01:32:44.329Z,3.38
2022-10-10T01:35:33.252Z,2.45
2022-10-10T01:38:21.591Z,3.15
2022-10-10T01:40:55.191Z,2.65
2022-10-10T01:43:26.550Z,2.42
2022-10-10T01:45:56.263Z,2.53
2022-10-10T01:48:29.451Z,2.83
2022-10-10T01:51:16.758Z,4.03
2022-10-10T01:53:51.792Z,2.88
2022-10-10T01:56:33.722Z,2.50
2022-10-10T01:59:17.315Z,2.30
2022-10-10T02:01:54.104Z,2.43
2022-10-10T02:04:31.379Z,2.65
2022-10-10T02:07:04.745Z,2.63
2022-10-10T02:09:39.882Z,3.10
2022-10-10T02:12:10.956Z,2.70
2022-10-10T02:14:43.966Z,2.50
2022-10-10T02:17:16.627Z,2.75
2022-10-10T02:19:48.104Z,2.40
2022-10-10T02:22:16.680Z,2.50
2022-10-10T02:24:45.876Z,2.58
2022-10-10T02:27:20.094Z,2.60
2022-10-10T02:29:50.423Z,2.65
2022-10-10T02:32:25.453Z,2.78
2022-10-10T02:34:57.315Z,2.08
2022-10-10T02:37:26.829Z,2.38
2022-10-10T02:39:59.715Z,2.33
2022-10-10T02:42:29.224Z,2.55
2022-10-10T02:44:59.137Z,3.20
2022-10-10T02:47:29.132Z,3.00
2022-10-10T02:49:57.369Z,3.30
2022-10-10T02:52:25.996Z,2.92
2022-10-10T02:54:54.071Z,3.05
2022-10-10T02:57:22.256Z,3.00
2022-10-10T02:59:50.494Z,3.13
2022-10-10T03:02:18.726Z,3.58
2022-10-10T03:04:48.270Z,2.97
2022-10-10T03:07:16.621Z,2.35
2022-10-10T03:09:44.780Z,3.15
2022-10-10T03:12:13.182Z,2.95
2022-10-10T03:14:41.392Z,3.60
2022-10-10T03:17:09.538Z,3.35
2022-10-10T03:19:37.736Z,3.00
2022-10-10T03:22:07.270Z,3.53
2022-10-10T03:24:35.535Z,3.53
2022-10-10T03:27:03.627Z,3.17
2022-10-10T03:29:31.956Z,3.13
2022-10-10T03:32:00.095Z,3.05
2022-10-10T03:34:28.529Z,3.58
2022-10-10T03:36:56.793Z,3.30
2022-10-10T03:39:27.025Z,3.28
2022-10-10T03:41:55.135Z,3.28
2022-10-10T03:44:23.566Z,3.40
2022-10-10T03:46:51.772Z,3.22
2022-10-10T03:49:19.959Z,3.30
2022-10-10T03:51:48.255Z,2.85
2022-10-10T03:54:16.545Z,3.03
2022-10-10T03:56:46.891Z,3.45
2022-10-10T03:59:15.086Z,3.35
2022-10-10T04:01:43.448Z,3.60
2022-10-10T04:04:11.628Z,3.45
2022-10-10T04:06:39.957Z,3.17
2022-10-10T04:09:08.383Z,3.40
2022-10-10T04:11:39.264Z,3.33
2022-10-10T04:14:09.661Z,3.30
2022-10-10T04:16:37.922Z,2.92
2022-10-10T04:19:06.166Z,3.20
2022-10-10T04:21:34.398Z,3.28
2022-10-10T04:24:02.819Z,3.30
2022-10-10T04:26:31.255Z,3.60
2022-10-10T04:29:00.076Z,3.75
2022-10-10T04:31:29.669Z,3.15
2022-10-10T04:33:57.903Z,4.30
2022-10-10T04:36:26.401Z,3.83
2022-10-10T04:38:54.591Z,3.35
2022-10-10T04:41:22.785Z,3.50
2022-10-10T04:43:51.389Z,3.45
2022-10-10T04:46:19.685Z,4.10
2022-10-10T04:48:49.249Z,3.55
2022-10-10T04:51:17.649Z,3.60
2022-10-10T04:53:50.292Z,3.97
2022-10-10T04:56:19.152Z,4.32
2022-10-10T04:58:47.267Z,3.95
2022-10-10T05:01:15.630Z,4.78
2022-10-10T05:03:44.002Z,6.03
2022-10-10T05:06:13.895Z,3.95
2022-10-10T05:08:42.371Z,4.88
2022-10-10T05:11:10.669Z,4.63
2022-10-10T05:13:39.139Z,3.97
2022-10-10T05:16:07.978Z,4.75
2022-10-10T05:18:37.459Z,4.13
2022-10-10T05:21:07.223Z,4.18
2022-10-10T05:23:38.837Z,4.10
2022-10-10T05:26:07.233Z,3.85
2022-10-10T05:28:36.667Z,4.00
2022-10-10T05:31:05.664Z,4.05
2022-10-10T05:33:34.564Z,3.97
2022-10-10T05:36:05.156Z,4.72
2022-10-10T05:38:33.640Z,4.68
2022-10-10T05:41:03.557Z,4.75
2022-10-10T05:43:32.767Z,5.43
2022-10-10T05:46:01.197Z,3.88
2022-10-10T05:48:30.247Z,6.45
2022-10-10T05:50:59.678Z,4.68
2022-10-10T05:53:28.889Z,5.25
2022-10-10T05:55:57.659Z,4.82
2022-10-10T05:58:28.328Z,4.25
2022-10-10T06:00:56.950Z,4.07
2022-10-10T06:03:25.231Z,4.60
2022-10-10T06:05:53.720Z,4.90
2022-10-10T06:08:22.062Z,4.13
2022-10-10T06:10:50.508Z,4.28
2022-10-10T06:13:24.311Z,4.30
2022-10-10T06:18:23.683Z,4.68
2022-10-10T06:20:53.053Z,6.03
2022-10-10T06:23:21.410Z,3.60
2022-10-10T06:25:53.098Z,4.10
2022-10-10T06:28:21.614Z,4.38
2022-10-10T06:30:50.857Z,4.18
2022-10-10T06:33:20.812Z,4.03
2022-10-10T06:35:50.252Z,4.22
2022-10-10T06:38:18.902Z,4.15
2022-10-10T06:40:48.409Z,4.35
2022-10-10T06:43:17.943Z,4.03
2022-10-10T06:45:47.729Z,3.88
2022-10-10T06:48:16.841Z,3.78
2022-10-10T06:50:57.401Z,4.00
2022-10-10T06:53:26.321Z,3.92
2022-10-10T06:55:55.226Z,4.65
2022-10-10T06:58:23.475Z,3.85
2022-10-10T07:00:53.494Z,3.35
2022-10-10T07:03:22.388Z,3.92
2022-10-10T07:05:53.532Z,3.80
2022-10-10T07:08:22.304Z,3.00
2022-10-10T07:10:51.296Z,3.40
2022-10-10T07:13:20.665Z,3.40
2022-10-10T07:15:48.884Z,3.50
2022-10-10T07:18:18.856Z,3.70
2022-10-10T07:20:47.136Z,3.60
2022-10-10T07:23:17.425Z,3.92
2022-10-10T07:25:46.159Z,3.65
2022-10-10T07:28:14.419Z,4.78
2022-10-10T07:30:44.114Z,4.57
2022-10-10T07:33:12.714Z,5.53
2022-10-10T07:35:41.018Z,5.15
2022-10-10T07:38:09.780Z,5.43
2022-10-10T07:40:41.232Z,5.65
2022-10-10T07:43:09.552Z,5.47
2022-10-10T07:45:38.602Z,5.03
2022-10-10T07:48:07.018Z,4.57
2022-10-10T07:50:35.285Z,6.10
2022-10-10T07:53:03.564Z,5.10
2022-10-10T07:55:31.833Z,5.53
2022-10-10T07:58:03.839Z,5.50
2022-10-10T08:00:33.554Z,5.72
2022-10-10T08:03:02.142Z,6.45
2022-10-10T08:05:30.422Z,5.20
2022-10-10T08:07:58.855Z,5.47
2022-10-10T08:10:28.821Z,5.80
2022-10-10T08:12:57.104Z,5.90
2022-10-10T08:15:27.920Z,5.57
2022-10-10T08:18:11.896Z,6.10
2022-10-10T08:20:40.191Z,5.82
2022-10-10T08:23:08.405Z,6.25
2022-10-10T08:25:36.892Z,6.10
2022-10-10T08:28:05.504Z,6.95
2022-10-10T08:30:35.108Z,6.78
2022-10-10T08:33:03.507Z,5.93
2022-10-10T08:35:31.596Z,6.80
2022-10-10T08:37:59.950Z,6.38
2022-10-10T08:40:28.960Z,6.97
2022-10-10T08:43:02.532Z,7.38
2022-10-10T08:45:31.717Z,6.53
2022-10-10T08:48:04.009Z,7.50
2022-10-10T08:50:37.722Z,7.15
2022-10-10T08:53:15.859Z,6.50
2022-10-10T08:55:46.363Z,7.82
2022-10-10T08:58:21.002Z,5.90
2022-10-10T09:00:53.060Z,7.28
2022-10-10T09:03:30.637Z,6.90
2022-10-10T09:06:18.416Z,7.00
2022-10-10T09:08:56.289Z,7.40
2022-10-10T09:11:38.806Z,6.70
2022-10-10T09:14:18.854Z,7.40
2022-10-10T09:16:54.962Z,6.95
2022-10-10T09:19:37.933Z,5.70
2022-10-10T09:22:13.661Z,6.60
2022-10-10T09:24:46.881Z,7.10
2022-10-10T09:27:21.616Z,7.13
2022-10-10T09:29:56.027Z,7.45
2022-10-10T09:32:28.050Z,7.03
2022-10-10T09:35:05.632Z,7.68
2022-10-10T09:37:53.713Z,6.03
2022-10-10T09:40:28.594Z,7.45
2022-10-10T09:42:57.545Z,6.90
2022-10-10T09:45:30.376Z,6.53
2022-10-10T09:47:58.607Z,7.88
2022-10-10T09:50:28.590Z,8.73
2022-10-10T09:52:58.615Z,7.82
2022-10-10T09:55:30.182Z,7.47
2022-10-10T09:58:03.858Z,7.85
2022-10-10T10:00:36.797Z,7.68
2022-10-10T10:03:16.407Z,8.45
2022-10-10T10:05:54.319Z,8.30
2022-10-10T10:08:34.264Z,8.90
2022-10-10T10:11:03.449Z,7.82
2022-10-10T10:13:33.983Z,8.05
2022-10-10T10:16:08.286Z,8.40
2022-10-10T10:18:42.927Z,7.57
2022-10-10T10:21:17.234Z,7.50
2022-10-10T10:23:52.063Z,7.93
2022-10-10T10:26:23.850Z,7.63
2022-10-10T10:28:53.882Z,8.52
2022-10-10T10:31:42.556Z,8.50
2022-10-10T10:34:27.876Z,7.55
2022-10-10T10:37:05.277Z,7.00
2022-10-10T10:39:44.906Z,7.40
2022-10-10T10:42:26.697Z,7.22
2022-10-10T10:45:06.347Z,7.22
2022-10-10T10:47:45.474Z,6.85
2022-10-10T10:50:28.398Z,6.40
2022-10-10T10:53:05.471Z,6.60
2022-10-10T10:55:41.275Z,7.03
2022-10-10T11:01:54.735Z,7.22
2022-10-10T11:05:20.939Z,7.10
2022-10-10T11:07:47.804Z,5.65
2022-10-10T11:10:28.671Z,6.53
2022-10-10T11:13:08.134Z,5.75
2022-10-10T11:18:33.923Z,5.78
2022-10-10T11:21:06.338Z,5.85
2022-10-10T11:23:41.490Z,5.30
2022-10-10T11:26:19.476Z,5.60
2022-10-10T11:28:52.509Z,5.30
2022-10-10T11:31:24.737Z,5.55
2022-10-10T11:33:57.970Z,5.35
2022-10-10T11:36:31.442Z,5.13
2022-10-10T11:39:06.527Z,5.07
2022-10-10T11:41:40.739Z,5.20
2022-10-10T11:44:13.471Z,6.00
2022-10-10T11:46:44.917Z,5.70
2022-10-10T11:49:21.094Z,6.10
2022-10-10T11:52:32.450Z,5.28
2022-10-10T11:55:07.952Z,5.43
2022-10-10T11:57:42.830Z,4.95
2022-10-10T12:00:14.908Z,5.90
2022-10-10T12:02:45.078Z,4.60
2022-10-10T12:05:25.313Z,5.43
2022-10-10T12:08:10.836Z,5.05
2022-10-10T12:10:47.727Z,5.10
2022-10-10T12:13:29.774Z,4.88
2022-10-10T12:16:04.470Z,4.45
2022-10-10T12:18:41.389Z,5.47
2022-10-10T12:21:12.550Z,5.57
2022-10-10T12:23:43.104Z,5.00
2022-10-10T12:26:17.741Z,5.80
2022-10-10T12:29:05.792Z,5.10
2022-10-10T12:31:38.964Z,6.28
2022-10-10T12:34:37.981Z,5.20
2022-10-10T12:37:22.489Z,5.95
2022-10-10T12:40:28.928Z,6.15
2022-10-10T12:43:24.100Z,5.60
2022-10-10T12:46:16.214Z,5.70
2022-10-10T12:48:45.476Z,5.45
2022-10-10T12:51:23.216Z,6.70
2022-10-10T12:53:56.054Z,5.95
2022-10-10T12:56:35.888Z,5.30
2022-10-10T12:59:04.877Z,4.78
2022-10-10T13:01:45.835Z,5.93
2022-10-10T13:04:18.042Z,5.43
2022-10-10T13:06:49.316Z,5.13
2022-10-10T13:09:21.901Z,5.03
2022-10-10T13:11:59.256Z,6.70
2022-10-10T13:14:39.091Z,5.65
2022-10-10T13:17:24.053Z,5.55
2022-10-10T13:19:52.852Z,6.70
2022-10-10T13:22:22.141Z,6.53
2022-10-10T13:24:52.156Z,5.88
2022-10-10T13:27:22.964Z,6.15
2022-10-10T13:29:52.299Z,5.47
2022-10-10T13:32:25.448Z,6.53
2022-10-10T13:34:55.874Z,6.00
2022-10-10T13:37:25.287Z,5.50
2022-10-10T13:39:55.001Z,6.05
2022-10-10T13:42:34.163Z,6.55
2022-10-10T13:45:05.339Z,5.45
2022-10-10T13:47:51.397Z,5.78
2022-10-10T13:50:23.732Z,4.93
2022-10-10T13:52:52.728Z,6.53
2022-10-10T13:55:26.492Z,5.78
2022-10-10T13:58:00.828Z,5.20
2022-10-10T14:00:32.822Z,5.32
2022-10-10T14:03:03.070Z,5.70
2022-10-10T14:05:33.470Z,5.10
2022-10-10T14:08:01.747Z,5.05
2022-10-10T14:10:36.135Z,5.47
2022-10-10T14:13:04.505Z,5.40
2022-10-10T14:15:36.855Z,5.80
2022-10-10T14:18:16.434Z,7.10
2022-10-10T14:20:45.513Z,5.60
2022-10-10T14:23:14.107Z,5.65
2022-10-10T14:25:44.438Z,4.82
2022-10-10T14:28:17.898Z,5.53
2022-10-10T14:30:47.065Z,5.78
2022-10-10T14:33:19.462Z,6.55
2022-10-10T14:35:49.377Z,5.57
2022-10-10T14:38:18.129Z,4.97
2022-10-10T14:40:49.572Z,5.35
2022-10-10T14:43:20.615Z,4.75
2022-10-10T14:45:51.260Z,5.72
2022-10-10T14:48:21.268Z,6.53
2022-10-10T14:50:51.252Z,5.22
2022-10-10T14:53:19.639Z,4.20
2022-10-10T14:55:50.406Z,4.07
2022-10-10T14:58:23.505Z,3.95
2022-10-10T15:00:53.072Z,4.25
2022-10-10T15:03:23.356Z,4.00
2022-10-10T15:05:51.897Z,4.38
2022-10-10T15:08:20.405Z,3.85
2022-10-10T15:10:49.004Z,4.05
2022-10-10T15:13:18.073Z,3.78
2022-10-10T15:15:48.652Z,5.40
2022-10-10T15:18:49.240Z,4.47
2022-10-10T15:21:11.692Z,4.45
2022-10-10T15:23:40.255Z,4.43
2022-10-10T15:26:09.388Z,4.53
2022-10-10T15:28:38.369Z,4.25
2022-10-10T15:31:07.213Z,4.18
2022-10-10T15:33:35.451Z,5.05
2022-10-10T15:36:10.899Z,4.35
2022-10-10T15:38:42.217Z,3.80
2022-10-10T15:41:11.362Z,4.15
2022-10-10T15:43:45.626Z,4.55
2022-10-10T15:46:14.377Z,6.43
2022-10-10T15:48:42.845Z,5.18
2022-10-10T15:51:11.187Z,4.45
2022-10-10T15:53:39.567Z,4.70
2022-10-10T15:56:10.874Z,4.88
2022-10-10T15:58:40.138Z,5.07
2022-10-10T16:01:14.840Z,4.22
2022-10-10T16:03:43.862Z,5.03
2022-10-10T16:06:12.781Z,4.93
2022-10-10T16:08:41.482Z,5.10
2022-10-10T16:11:13.045Z,4.82
2022-10-10T16:13:43.239Z,5.03
2022-10-10T16:16:20.732Z,4.63
2022-10-10T16:18:50.888Z,5.18
2022-10-10T16:21:22.242Z,4.93
2022-10-10T16:23:55.655Z,4.85
2022-10-10T16:26:29.501Z,4.93
2022-10-10T16:28:59.777Z,5.07
2022-10-10T16:31:32.666Z,5.47
2022-10-10T16:34:01.236Z,6.70
2022-10-10T16:36:31.564Z,5.47
2022-10-10T16:39:00.672Z,6.20
2022-10-10T16:41:49.687Z,6.90
2022-10-10T16:44:18.818Z,7.65
2022-10-10T16:46:48.747Z,7.05
2022-10-10T16:49:17.396Z,7.10
2022-10-10T16:51:49.093Z,8.45
2022-10-10T16:54:17.549Z,7.70
2022-10-10T16:56:47.503Z,7.57
2022-10-10T16:59:19.535Z,8.10
2022-10-10T17:01:48.261Z,7.47
2022-10-10T17:04:16.428Z,7.88
2022-10-10T17:06:45.040Z,8.35
2022-10-10T17:09:13.505Z,8.13
2022-10-10T17:11:41.680Z,7.10
2022-10-10T17:14:12.364Z,7.65
2022-10-10T17:19:29.036Z,11.10
2022-10-10T17:21:57.562Z,9.00
2022-10-10T17:24:25.602Z,7.72
2022-10-10T17:26:53.914Z,8.50
2022-10-10T17:29:23.872Z,8.15
2022-10-10T17:31:52.667Z,8.20
2022-10-10T17:34:21.517Z,7.93
2022-10-10T17:36:50.105Z,9.27
2022-10-10T17:39:18.308Z,7.97
2022-10-10T17:41:49.295Z,8.05
2022-10-10T17:44:17.902Z,9.10
2022-10-10T17:46:47.815Z,8.18
2022-10-10T17:49:16.143Z,8.25
2022-10-10T17:51:44.385Z,8.65
2022-10-10T17:54:13.610Z,9.52
2022-10-10T17:56:44.767Z,8.73
2022-10-10T17:59:13.481Z,7.80
2022-10-10T18:01:41.863Z,7.38
2022-10-10T18:04:15.627Z,9.15
2022-10-10T18:06:43.708Z,8.40
2022-10-10T18:09:12.361Z,8.98
2022-10-10T18:11:40.597Z,9.07
2022-10-10T18:14:08.827Z,9.43
2022-10-10T18:16:38.227Z,8.75
2022-10-10T18:19:09.826Z,9.23
2022-10-10T18:21:39.881Z,8.98
2022-10-10T18:24:08.821Z,8.85
2022-10-10T18:26:37.324Z,9.32
2022-10-10T18:29:05.710Z,9.27
2022-10-10T18:31:36.335Z,9.10
2022-10-10T18:34:05.601Z,8.88
2022-10-10T18:36:36.417Z,9.18
2022-10-10T18:39:10.331Z,8.43
2022-10-10T18:41:38.680Z,9.27
2022-10-10T18:44:08.876Z,9.63
2022-10-10T18:46:37.972Z,9.93
2022-10-10T18:49:09.317Z,10.60
2022-10-10T18:51:40.138Z,11.05
2022-10-10T18:54:11.537Z,10.23
2022-10-10T18:56:41.428Z,10.38
2022-10-10T18:59:13.834Z,9.18
2022-10-10T19:01:45.979Z,9.93
2022-10-10T19:04:16.274Z,10.82
2022-10-10T19:06:45.569Z,9.90
2022-10-10T19:09:18.517Z,9.07
2022-10-10T19:11:50.158Z,9.57
2022-10-10T19:14:19.796Z,10.13
2022-10-10T19:16:49.142Z,9.48
2022-10-10T19:19:19.705Z,9.35
2022-10-10T19:21:49.006Z,10.90
2022-10-10T19:24:21.641Z,9.43
2022-10-10T19:26:57.093Z,9.93
2022-10-10T19:29:27.089Z,10.05
2022-10-10T19:31:56.110Z,9.57
2022-10-10T19:34:24.971Z,9.68
2022-10-10T19:36:53.843Z,9.27
2022-10-10T19:39:23.978Z,9.65
2022-10-10T19:41:52.863Z,10.02
2022-10-10T19:44:21.608Z,12.68
2022-10-10T19:46:50.097Z,10.13
2022-10-10T19:49:18.584Z,11.85
2022-10-10T19:51:46.906Z,10.25
2022-10-10T19:54:15.289Z,10.50
2022-10-10T19:56:45.025Z,10.48
2022-10-10T19:59:13.399Z,9.88
2022-10-10T20:01:41.855Z,10.65
2022-10-10T20:04:10.109Z,9.48
2022-10-10T20:06:41.258Z,10.45
2022-10-10T20:09:10.986Z,11.07
2022-10-10T20:11:43.395Z,10.52
2022-10-10T20:14:14.135Z,10.70
2022-10-10T20:16:42.722Z,9.85
2022-10-10T20:19:11.116Z,9.23
2022-10-10T20:21:40.769Z,10.77
2022-10-10T20:24:12.282Z,11.43
2022-10-10T20:26:40.776Z,11.55
2022-10-10T20:29:09.652Z,10.70
2022-10-10T20:31:39.871Z,11.88
2022-10-10T20:34:08.829Z,10.65
2022-10-10T20:36:39.413Z,11.18
2022-10-10T20:39:10.662Z,9.48
2022-10-10T20:41:40.836Z,10.55
2022-10-10T20:44:11.938Z,9.90
2022-10-10T20:46:43.281Z,9.65
2022-10-10T20:49:14.376Z,10.20
2022-10-10T20:51:48.150Z,10.65
2022-10-10T20:54:17.829Z,12.30
2022-10-10T20:56:46.133Z,9.52
2022-10-10T20:59:15.309Z,9.57
2022-10-10T21:01:45.967Z,10.10
2022-10-10T21:04:15.267Z,9.68
2022-10-10T21:06:44.285Z,11.75
2022-10-10T21:09:14.703Z,10.07
2022-10-10T21:11:46.463Z,9.20
2022-10-10T21:16:46.806Z,10.10
2022-10-10T21:19:15.705Z,12.00
2022-10-10T21:21:44.949Z,9.70
2022-10-10T21:24:14.207Z,10.77
2022-10-10T21:26:43.815Z,10.10
2022-10-10T21:29:12.118Z,9.75
2022-10-10T21:31:42.373Z,9.63
2022-10-10T21:34:16.074Z,11.07
2022-10-10T21:36:47.614Z,10.52
2022-10-10T21:39:16.352Z,11.82
2022-10-10T21:41:44.964Z,10.50
2022-10-10T21:44:13.500Z,9.35
2022-10-10T21:46:42.104Z,10.38
2022-10-10T21:49:13.373Z,10.88
2022-10-10T21:51:45.667Z,9.30
2022-10-10T21:54:14.620Z,9.88
2022-10-10T21:56:42.943Z,10.63
2022-10-10T21:59:12.159Z,9.85
2022-10-10T22:01:40.660Z,10.90
2022-10-10T22:04:09.015Z,10.85
2022-10-10T22:06:38.791Z,11.85
2022-10-10T22:09:07.118Z,12.52
2022-10-10T22:11:36.013Z,11.95
2022-10-10T22:14:05.049Z,12.38
2022-10-10T22:16:34.463Z,13.57
2022-10-10T22:19:03.462Z,12.82
2022-10-10T22:21:34.745Z,12.88
2022-10-10T22:24:07.137Z,13.20
2022-10-10T22:26:35.742Z,13.60
2022-10-10T22:29:04.506Z,12.60
2022-10-10T22:31:35.693Z,12.40
2022-10-10T22:34:04.119Z,12.52
2022-10-10T22:36:32.312Z,11.80
2022-10-10T22:39:00.710Z,11.57
2022-10-10T22:41:30.381Z,10.27
2022-10-10T22:43:59.085Z,9.30
2022-10-10T22:46:27.301Z,9.15
2022-10-10T22:48:55.502Z,9.13
2022-10-10T22:51:23.705Z,9.48
2022-10-10T22:53:52.038Z,7.68
2022-10-10T22:56:22.759Z,7.63
2022-10-10T22:58:52.951Z,6.40
2022-10-10T23:01:23.015Z,6.60
2022-10-10T23:03:51.857Z,6.63
2022-10-10T23:06:20.118Z,7.35
2022-10-10T23:08:48.323Z,5.85
2022-10-10T23:11:16.791Z,5.18
2022-10-10T23:13:45.263Z,6.90
2022-10-10T23:16:15.495Z,6.70
2022-10-10T23:18:43.769Z,4.65
2022-10-10T23:21:11.944Z,5.50
2022-10-10T23:23:40.745Z,6.03
2022-10-10T23:26:10.754Z,7.25
2022-10-10T23:28:40.306Z,9.10
2022-10-10T23:31:10.458Z,7.20
2022-10-10T23:33:40.313Z,6.43
2022-10-10T23:36:12.281Z,6.70
2022-10-10T23:38:40.969Z,4.28
2022-10-10T23:41:09.517Z,3.80
2022-10-10T23:43:38.415Z,4.00
2022-10-10T23:46:07.269Z,4.18
2022-10-10T23:48:36.992Z,4.15
2022-10-10T23:51:07.481Z,4.93
2022-10-10T23:53:36.076Z,3.40
2022-10-10T23:56:04.539Z,3.75
2022-10-10T23:58:34.289Z,3.92
